createdAt,value
2018-12-02T00:00:47.352Z,96022.05
2018-12-02T00:03:15.729Z,96008.20
2018-12-02T00:05:44.128Z,96011.70
2018-12-02T00:08:12.481Z,95985.28
2018-12-02T00:10:40.806Z,96003.42
2018-12-02T00:13:09.126Z,96002.37
2018-12-02T00:15:38.505Z,96000.52
2018-12-02T00:18:08.747Z,95998.63
2018-12-02T00:20:37.417Z,95982.13
2018-12-02T00:23:06.683Z,95974.90
2018-12-02T00:25:35.113Z,95985.56
2018-12-02T00:28:03.690Z,95975.70
2018-12-02T00:30:32.241Z,95973.56
2018-12-02T00:33:00.588Z,95970.13
2018-12-02T00:35:29.014Z,95963.70
2018-12-02T00:38:01.310Z,95955.98
2018-12-02T00:40:29.909Z,95962.13
2018-12-02T00:42:59.253Z,95957.06
2018-12-02T00:45:28.698Z,95959.98
2018-12-02T00:47:57.017Z,95947.98
2018-12-02T00:50:25.370Z,95941.84
2018-12-02T00:52:55.728Z,95945.06
2018-12-02T00:55:25.114Z,95943.45
2018-12-02T00:57:53.425Z,95942.92
2018-12-02T01:00:21.720Z,95955.48
2018-12-02T01:02:50.708Z,95941.09
2018-12-02T01:05:21.721Z,95934.67
2018-12-02T01:07:50.820Z,95940.04
2018-12-02T01:10:21.853Z,95935.23
2018-12-02T01:12:51.957Z,95932.56
2018-12-02T01:15:21.610Z,95928.06
2018-12-02T01:17:50.049Z,95922.45
2018-12-02T01:20:19.255Z,95920.06
2018-12-02T01:22:47.613Z,95916.30
2018-12-02T01:25:16.002Z,95908.58
2018-12-02T01:27:44.893Z,95906.17
2018-12-02T01:30:20.017Z,95900.58
2018-12-02T01:32:48.437Z,95891.27
2018-12-02T01:35:17.464Z,95888.59
2018-12-02T01:37:45.886Z,95893.16
2018-12-02T01:40:16.333Z,95882.48
2018-12-02T01:42:44.677Z,95879.55
2018-12-02T01:45:18.048Z,95882.76
2018-12-02T01:47:46.378Z,95867.25
2018-12-02T01:50:15.594Z,95887.23
2018-12-02T01:52:44.661Z,95880.03
2018-12-02T01:55:12.977Z,95882.41
2018-12-02T01:57:41.326Z,95870.41
2018-12-02T02:00:19.300Z,95873.58
2018-12-02T02:02:47.664Z,95867.19
2018-12-02T02:05:16.821Z,95859.74
2018-12-02T02:07:45.173Z,95865.61
2018-12-02T02:10:16.305Z,95856.27
2018-12-02T02:12:44.629Z,95859.23
2018-12-02T02:15:15.731Z,95858.41
2018-12-02T02:17:44.129Z,95854.41
2018-12-02T02:20:16.288Z,95857.08
2018-12-02T02:22:44.837Z,95845.88
2018-12-02T02:25:14.886Z,95843.77
2018-12-02T02:27:44.269Z,95840.28
2018-12-02T02:30:15.471Z,95838.17
2018-12-02T02:32:43.797Z,95833.38
2018-12-02T02:35:12.339Z,95825.63
2018-12-02T02:37:40.966Z,95824.05
2018-12-02T02:40:13.257Z,95817.11
2018-12-02T02:42:41.538Z,95815.77
2018-12-02T02:45:10.695Z,95806.95
2018-12-02T02:47:39.653Z,95797.38
2018-12-02T02:50:12.784Z,95802.44
2018-12-02T02:52:41.612Z,95788.04
2018-12-02T02:55:09.942Z,95786.16
2018-12-02T02:57:38.241Z,95783.48
2018-12-02T03:00:11.931Z,95777.09
2018-12-02T03:02:40.270Z,95770.17
2018-12-02T03:05:09.376Z,95764.27
2018-12-02T03:07:37.722Z,95761.88
2018-12-02T03:10:08.399Z,95757.59
2018-12-02T03:12:36.724Z,95762.92
2018-12-02T03:15:06.089Z,95750.94
2018-12-02T03:17:34.369Z,95761.07
2018-12-02T03:20:02.718Z,95753.61
2018-12-02T03:22:31.018Z,95750.93
2018-12-02T03:24:59.329Z,95753.88
2018-12-02T03:27:27.622Z,95737.86
2018-12-02T03:29:55.924Z,95749.58
2018-12-02T03:32:24.239Z,95747.19
2018-12-02T03:34:52.550Z,95740.80
2018-12-02T03:37:20.851Z,95737.86
2018-12-02T03:39:49.190Z,95746.13
2018-12-02T03:42:17.494Z,95739.20
2018-12-02T03:44:46.057Z,95736.80
2018-12-02T03:47:14.350Z,95737.86
2018-12-02T03:49:42.666Z,95735.47
2018-12-02T03:52:11.402Z,95731.98
2018-12-02T03:54:39.942Z,95732.77
2018-12-02T03:57:08.412Z,95722.91
2018-12-02T03:59:36.873Z,95731.45
2018-12-02T04:02:05.396Z,95720.23
2018-12-02T04:04:33.724Z,95724.25
2018-12-02T04:07:02.354Z,95714.09
2018-12-02T04:09:30.803Z,95705.29
2018-12-02T04:11:59.298Z,95708.77
2018-12-02T04:14:27.773Z,95700.77
2018-12-02T04:16:56.097Z,95704.51
2018-12-02T04:19:24.401Z,95694.10
2018-12-02T04:21:52.754Z,95691.44
2018-12-02T04:24:21.181Z,95676.52
2018-12-02T04:26:50.194Z,95680.00
2018-12-02T04:29:18.658Z,95678.64
2018-12-02T04:31:46.977Z,95678.91
2018-12-02T04:34:15.321Z,95674.39
2018-12-02T04:36:44.115Z,95668.78
2018-12-02T04:39:13.486Z,95672.77
2018-12-02T04:41:42.106Z,95664.77
2018-12-02T04:44:10.747Z,95662.12
2018-12-02T04:46:39.098Z,95654.13
2018-12-02T04:49:07.534Z,95654.13
2018-12-02T04:51:36.033Z,95656.00
2018-12-02T04:54:04.513Z,95656.80
2018-12-02T04:56:33.002Z,95649.05
2018-12-02T04:59:01.457Z,95647.71
2018-12-02T05:01:29.957Z,95650.13
2018-12-02T05:03:58.434Z,95635.99
2018-12-02T05:06:26.774Z,95645.05
2018-12-02T05:08:55.898Z,95636.51
2018-12-02T05:11:24.222Z,95636.78
2018-12-02T05:13:52.522Z,95633.33
2018-12-02T05:16:20.847Z,95628.25
2018-12-02T05:18:49.137Z,95626.38
2018-12-02T05:21:17.456Z,95623.97
2018-12-02T05:23:45.757Z,95623.19
2018-12-02T05:26:14.077Z,95618.11
2018-12-02T05:28:42.370Z,95620.26
2018-12-02T05:31:10.669Z,95617.32
2018-12-02T05:33:38.982Z,95607.18
2018-12-02T05:36:07.274Z,95612.52
2018-12-02T05:38:35.645Z,95603.70
2018-12-02T05:41:04.004Z,95601.04
2018-12-02T05:43:32.628Z,95601.58
2018-12-02T05:46:00.921Z,95600.77
2018-12-02T05:48:29.573Z,95594.62
2018-12-02T05:50:57.890Z,95593.02
2018-12-02T05:53:26.570Z,95580.77
2018-12-02T05:55:55.010Z,95578.34
2018-12-02T05:58:23.509Z,95578.09
2018-12-02T06:00:51.975Z,95576.47
2018-12-02T06:03:20.302Z,95577.28
2018-12-02T06:05:48.933Z,95586.36
2018-12-02T06:08:17.284Z,95577.00
2018-12-02T06:10:45.916Z,95583.95
2018-12-02T06:13:14.229Z,95582.08
2018-12-02T06:15:42.501Z,95574.88
2018-12-02T06:18:10.813Z,95587.40
2018-12-02T06:20:39.113Z,95582.31
2018-12-02T06:23:07.429Z,95585.53
2018-12-02T06:25:35.751Z,95578.05
2018-12-02T06:28:04.122Z,95582.88
2018-12-02T06:30:32.406Z,95588.20
2018-12-02T06:33:01.877Z,95577.53
2018-12-02T06:35:30.197Z,95569.24
2018-12-02T06:37:59.623Z,95573.80
2018-12-02T06:40:28.638Z,95573.80
2018-12-02T06:42:56.990Z,95574.30
2018-12-02T06:45:25.313Z,95579.13
2018-12-02T06:47:53.633Z,95575.09
2018-12-02T06:50:23.283Z,95567.91
2018-12-02T06:52:52.162Z,95566.56
2018-12-02T06:55:23.922Z,95557.22
2018-12-02T06:57:56.010Z,95563.61
2018-12-02T07:02:39.029Z,95566.27
2018-12-02T07:05:08.438Z,95560.13
2018-12-02T07:07:36.709Z,95570.55
2018-12-02T07:10:05.603Z,95570.81
2018-12-02T07:12:33.925Z,95566.27
2018-12-02T07:15:02.261Z,95561.23
2018-12-02T07:17:30.557Z,95554.80
2018-12-02T07:19:58.866Z,95558.00
2018-12-02T07:22:27.890Z,95554.24
2018-12-02T07:24:56.278Z,95552.92
2018-12-02T07:27:24.605Z,95553.16
2018-12-02T07:29:52.957Z,95552.90
2018-12-02T07:32:21.258Z,95552.88
2018-12-02T07:34:49.589Z,95540.63
2018-12-02T07:37:19.309Z,95537.39
2018-12-02T07:39:58.746Z,95539.00
2018-12-02T07:42:27.078Z,95537.38
2018-12-02T07:44:55.406Z,95530.67
2018-12-02T07:47:23.729Z,95535.22
2018-12-02T07:49:52.362Z,95521.35
2018-12-02T07:52:20.665Z,95521.35
2018-12-02T07:54:49.317Z,95526.69
2018-12-02T07:57:17.802Z,95518.39
2018-12-02T07:59:46.285Z,95512.78
2018-12-02T08:02:14.602Z,95513.02
2018-12-02T08:04:43.274Z,95502.08
2018-12-02T08:07:11.701Z,95515.94
2018-12-02T08:09:40.186Z,95501.78
2018-12-02T08:12:08.525Z,95510.30
2018-12-02T08:14:36.868Z,95509.70
2018-12-02T08:17:05.683Z,95507.30
2018-12-02T08:19:33.986Z,95509.95
2018-12-02T08:22:02.618Z,95505.64
2018-12-02T08:24:30.928Z,95510.42
2018-12-02T08:26:59.585Z,95497.02
2018-12-02T08:29:28.638Z,95502.63
2018-12-02T08:31:56.969Z,95496.17
2018-12-02T08:34:25.290Z,95496.98
2018-12-02T08:36:54.031Z,95503.63
2018-12-02T08:39:22.473Z,95502.83
2018-12-02T08:41:50.998Z,95496.90
2018-12-02T08:44:19.438Z,95508.27
2018-12-02T08:46:47.942Z,95509.96
2018-12-02T08:49:16.410Z,95520.05
2018-12-02T08:51:44.920Z,95516.26
2018-12-02T08:54:13.398Z,95512.25
2018-12-02T08:56:41.878Z,95505.56
2018-12-02T08:59:10.342Z,95520.05
2018-12-02T09:01:38.686Z,95514.47
2018-12-02T09:04:07.314Z,95517.68
2018-12-02T09:06:35.714Z,95518.13
2018-12-02T09:09:06.098Z,95524.81
2018-12-02T09:11:34.458Z,95526.66
2018-12-02T09:14:02.765Z,95525.66
2018-12-02T09:16:31.272Z,95527.99
2018-12-02T09:18:59.733Z,95528.52
2018-12-02T09:21:28.230Z,95534.63
2018-12-02T09:23:56.533Z,95524.95
2018-12-02T09:26:24.853Z,95527.67
2018-12-02T09:28:53.181Z,95521.48
2018-12-02T09:31:21.650Z,95529.73
2018-12-02T09:33:50.626Z,95527.33
2018-12-02T09:36:19.130Z,95518.71
2018-12-02T09:38:47.592Z,95527.54
2018-12-02T09:41:16.095Z,95535.56
2018-12-02T09:43:44.541Z,95531.28
2018-12-02T09:46:13.055Z,95534.19
2018-12-02T09:48:41.473Z,95527.19
2018-12-02T09:51:09.773Z,95528.26
2018-12-02T09:53:38.149Z,95530.12
2018-12-02T09:56:07.103Z,95534.41
2018-12-02T09:58:35.429Z,95532.70
2018-12-02T10:01:03.798Z,95529.22
2018-12-02T10:03:32.129Z,95533.41
2018-12-02T10:06:00.474Z,95534.95
2018-12-02T10:08:28.806Z,95526.33
2018-12-02T10:10:57.345Z,95520.60
2018-12-02T10:13:25.842Z,95523.00
2018-12-02T10:15:54.309Z,95519.99
2018-12-02T10:18:23.328Z,95522.30
2018-12-02T10:20:51.646Z,95518.22
2018-12-02T10:23:19.974Z,95519.50
2018-12-02T10:25:48.297Z,95499.95
2018-12-02T10:28:16.621Z,95506.91
2018-12-02T10:30:44.915Z,95518.70
2018-12-02T10:33:13.266Z,95517.27
2018-12-02T10:35:41.565Z,95512.58
2018-12-02T10:38:09.895Z,95513.83
2018-12-02T10:40:38.589Z,95517.84
2018-12-02T10:43:07.407Z,95507.66
2018-12-02T10:45:35.770Z,95508.22
2018-12-02T10:48:05.793Z,95511.33
2018-12-02T10:50:35.097Z,95511.89
2018-12-02T10:53:07.206Z,95528.19
2018-12-02T10:55:42.301Z,95532.86
2018-12-02T10:58:13.149Z,95518.20
2018-12-02T11:01:52.202Z,95502.91
2018-12-02T11:04:20.538Z,95510.89
2018-12-02T11:06:48.837Z,95508.92
2018-12-02T11:09:17.157Z,95513.16
2018-12-02T11:11:45.459Z,95513.05
2018-12-02T11:14:13.786Z,95509.62
2018-12-02T11:16:42.074Z,95521.09
2018-12-02T11:19:10.398Z,95507.78
2018-12-02T11:21:38.685Z,95515.47
2018-12-02T11:24:06.989Z,95522.89
2018-12-02T11:26:35.285Z,95517.18
2018-12-02T11:29:03.613Z,95522.18
2018-12-02T11:31:31.905Z,95518.53
2018-12-02T11:34:00.234Z,95511.98
2018-12-02T11:36:28.530Z,95516.29
2018-12-02T11:38:56.850Z,95509.17
2018-12-02T11:41:25.141Z,95511.16
2018-12-02T11:43:53.463Z,95520.17
2018-12-02T11:46:21.797Z,95517.64
2018-12-02T11:48:50.111Z,95525.00
2018-12-02T11:51:18.443Z,95520.20
2018-12-02T11:53:46.741Z,95527.11
2018-12-02T11:56:15.527Z,95523.30
2018-12-02T11:58:44.018Z,95528.51
2018-12-02T12:01:12.497Z,95539.33
2018-12-02T12:03:40.949Z,95527.87
2018-12-02T12:06:09.447Z,95528.88
2018-12-02T12:08:37.906Z,95537.73
2018-12-02T12:11:06.330Z,95540.67
2018-12-02T12:13:34.626Z,95534.50
2018-12-02T12:16:03.391Z,95532.74
2018-12-02T12:18:31.850Z,95525.83
2018-12-02T12:21:00.336Z,95527.48
2018-12-02T12:23:28.794Z,95532.27
2018-12-02T12:25:57.298Z,95535.44
2018-12-02T12:28:25.761Z,95525.70
2018-12-02T12:30:54.270Z,95529.52
2018-12-02T12:33:23.122Z,95533.80
2018-12-02T12:35:52.286Z,95528.13
2018-12-02T12:38:20.609Z,95533.97
2018-12-02T12:40:50.591Z,95533.72
2018-12-02T12:43:25.356Z,95534.63
2018-12-02T12:45:53.702Z,95533.11
2018-12-02T12:48:22.045Z,95539.93
2018-12-02T12:50:50.354Z,95526.30
2018-12-02T12:53:18.669Z,95537.30
2018-12-02T12:55:50.826Z,95536.73
2018-12-02T12:58:16.787Z,95542.94
2018-12-02T13:00:45.115Z,95531.12
2018-12-02T13:03:13.447Z,95534.98
2018-12-02T13:05:41.798Z,95535.81
2018-12-02T13:08:11.314Z,95542.97
2018-12-02T13:10:39.651Z,95546.81
2018-12-02T13:13:07.998Z,95549.84
2018-12-02T13:15:36.424Z,95554.77
2018-12-02T13:18:07.622Z,95542.41
2018-12-02T13:20:41.886Z,95555.95
2018-12-02T13:23:10.209Z,95553.78
2018-12-02T13:25:38.608Z,95557.51
2018-12-02T13:28:07.592Z,95554.72
2018-12-02T13:30:35.978Z,95567.50
2018-12-02T13:33:04.317Z,95568.55
2018-12-02T13:35:32.648Z,95570.05
2018-12-02T13:38:00.970Z,95567.07
2018-12-02T13:40:29.267Z,95565.99
2018-12-02T13:43:00.943Z,95567.95
2018-12-02T13:45:30.153Z,95567.07
2018-12-02T13:47:58.517Z,95572.11
2018-12-02T13:50:26.877Z,95572.55
2018-12-02T13:52:56.145Z,95572.14
2018-12-02T13:55:26.714Z,95574.42
2018-12-02T13:57:55.074Z,95570.06
2018-12-02T14:00:25.252Z,95573.17
2018-12-02T14:02:57.730Z,95578.46
2018-12-02T14:05:26.074Z,95583.00
2018-12-02T14:07:54.409Z,95586.59
2018-12-02T14:10:22.774Z,95581.56
2018-12-02T14:12:56.252Z,95592.53
2018-12-02T14:17:33.201Z,95587.09
2018-12-02T14:20:01.535Z,95592.34
2018-12-02T14:22:29.877Z,95581.34
2018-12-02T14:25:02.774Z,95581.79
2018-12-02T14:27:26.558Z,95586.20
2018-12-02T14:29:56.077Z,95578.36
2018-12-02T14:32:25.521Z,95577.67
2018-12-02T14:34:53.850Z,95581.70
2018-12-02T14:37:22.153Z,95572.05
2018-12-02T14:39:50.456Z,95579.59
2018-12-02T14:42:19.337Z,95589.81
2018-12-02T14:44:47.662Z,95588.82
2018-12-02T14:47:16.011Z,95593.84
2018-12-02T14:49:44.354Z,95594.74
2018-12-02T14:52:12.689Z,95599.03
2018-12-02T14:54:40.969Z,95604.70
2018-12-02T14:57:09.537Z,95610.63
2018-12-02T14:59:37.861Z,95617.34
2018-12-02T15:02:06.553Z,95620.03
2018-12-02T15:04:34.982Z,95617.70
2018-12-02T15:07:03.478Z,95616.35
2018-12-02T15:09:31.958Z,95616.25
2018-12-02T15:12:00.490Z,95612.98
2018-12-02T15:14:28.893Z,95615.67
2018-12-02T15:16:57.403Z,95613.09
2018-12-02T15:19:25.850Z,95611.77
2018-12-02T15:21:54.432Z,95605.79
2018-12-02T15:24:22.731Z,95623.77
2018-12-02T15:26:51.074Z,95632.32
2018-12-02T15:29:19.373Z,95632.00
2018-12-02T15:31:47.699Z,95630.84
2018-12-02T15:34:15.998Z,95645.83
2018-12-02T15:36:44.330Z,95644.09
2018-12-02T15:39:12.721Z,95642.39
2018-12-02T15:41:41.050Z,95639.13
2018-12-02T15:44:09.353Z,95637.37
2018-12-02T15:46:37.686Z,95641.69
2018-12-02T15:49:06.068Z,95646.77
2018-12-02T15:51:34.366Z,95646.00
2018-12-02T15:54:02.702Z,95645.75
2018-12-02T15:56:31.042Z,95644.47
2018-12-02T15:58:59.541Z,95652.23
2018-12-02T16:01:28.002Z,95655.47
2018-12-02T16:03:56.505Z,95647.69
2018-12-02T16:06:24.970Z,95650.03
2018-12-02T16:08:53.298Z,95653.23
2018-12-02T16:11:21.917Z,95653.78
2018-12-02T16:13:50.946Z,95655.03
2018-12-02T16:16:19.274Z,95660.21
2018-12-02T16:18:47.589Z,95664.98
2018-12-02T16:21:16.010Z,95657.98
2018-12-02T16:23:44.594Z,95662.15
2018-12-02T16:26:12.926Z,95664.58
2018-12-02T16:28:41.314Z,95663.75
2018-12-02T16:31:09.609Z,95666.24
2018-12-02T16:33:37.967Z,95667.59
2018-12-02T16:36:06.814Z,95665.24
2018-12-02T16:38:35.125Z,95661.59
2018-12-02T16:41:03.433Z,95656.75
2018-12-02T16:43:31.760Z,95655.41
2018-12-02T16:46:00.069Z,95665.42
2018-12-02T16:48:28.386Z,95665.45
2018-12-02T16:50:56.697Z,95662.09
2018-12-02T16:53:27.186Z,95666.16
2018-12-02T16:56:07.473Z,95666.77
2018-12-02T16:59:45.657Z,95660.94
2018-12-02T17:02:13.985Z,95663.36
2018-12-02T17:04:42.282Z,95658.27
2018-12-02T17:07:10.606Z,95662.56
2018-12-02T17:09:38.901Z,95669.02
2018-12-02T17:12:07.310Z,95666.59
2018-12-02T17:14:38.714Z,95664.45
2018-12-02T17:17:03.990Z,95671.51
2018-12-02T17:19:32.343Z,95668.94
2018-12-02T17:22:00.641Z,95671.45
2018-12-02T17:24:28.981Z,95673.59
2018-12-02T17:26:57.289Z,95670.53
2018-12-02T17:29:25.633Z,95673.30
2018-12-02T17:32:00.230Z,95670.70
2018-12-02T17:34:28.545Z,95680.37
2018-12-02T17:36:56.847Z,95668.73
2018-12-02T17:39:27.853Z,95677.69
2018-12-02T17:42:00.724Z,95670.45
2018-12-02T17:44:29.361Z,95669.73
2018-12-02T17:46:57.663Z,95663.07
2018-12-02T17:49:25.993Z,95660.55
2018-12-02T17:51:54.345Z,95660.06
2018-12-02T17:54:22.673Z,95661.98
2018-12-02T17:56:50.990Z,95662.75
2018-12-02T17:59:19.343Z,95655.69
2018-12-02T18:01:47.637Z,95663.14
2018-12-02T18:04:16.307Z,95660.42
2018-12-02T18:06:44.766Z,95656.10
2018-12-02T18:09:14.281Z,95656.59
2018-12-02T18:11:42.771Z,95655.75
2018-12-02T18:14:11.257Z,95661.48
2018-12-02T18:16:39.728Z,95671.53
2018-12-02T18:19:08.230Z,95673.52
2018-12-02T18:21:37.198Z,95687.64
2018-12-02T18:24:05.926Z,95681.65
2018-12-02T18:26:34.240Z,95676.59
2018-12-02T18:29:02.560Z,95679.63
2018-12-02T18:31:30.893Z,95684.66
2018-12-02T18:33:59.213Z,95677.10
2018-12-02T18:36:31.413Z,95678.80
2018-12-02T18:38:59.733Z,95679.37
2018-12-02T18:41:31.302Z,95677.28
2018-12-02T18:43:59.624Z,95681.38
2018-12-02T18:46:27.974Z,95677.91
2018-12-02T18:48:56.285Z,95678.52
2018-12-02T18:51:24.618Z,95670.53
2018-12-02T18:53:52.934Z,95678.94
2018-12-02T18:56:21.329Z,95677.42
2018-12-02T18:58:49.641Z,95672.85
2018-12-02T19:01:18.250Z,95672.88
2018-12-02T19:03:46.997Z,95675.00
2018-12-02T19:06:15.530Z,95670.27
2018-12-02T19:08:43.978Z,95677.28
2018-12-02T19:11:12.482Z,95672.70
2018-12-02T19:13:43.784Z,95675.20
2018-12-02T19:16:09.889Z,95681.38
2018-12-02T19:18:38.501Z,95685.06
2018-12-02T19:21:12.045Z,95686.06
2018-12-02T19:23:40.505Z,95688.18
2018-12-02T19:26:08.861Z,95690.58
2018-12-02T19:28:37.233Z,95691.86
2018-12-02T19:31:06.017Z,95687.29
2018-12-02T19:33:34.950Z,95687.27
2018-12-02T19:36:09.374Z,95695.02
2018-12-02T19:38:37.734Z,95690.98
2018-12-02T19:41:06.729Z,95690.72
2018-12-02T19:43:35.474Z,95689.64
2018-12-02T19:46:03.858Z,95695.02
2018-12-02T19:48:32.301Z,95702.56
2018-12-02T19:51:00.641Z,95706.85
2018-12-02T19:53:28.934Z,95697.19
2018-12-02T19:55:57.274Z,95709.02
2018-12-02T19:58:25.577Z,95705.02
2018-12-02T20:00:56.217Z,95706.94
2018-12-02T20:03:24.542Z,95707.99
2018-12-02T20:05:52.864Z,95703.22
2018-12-02T20:08:21.181Z,95700.47
2018-12-02T20:10:51.158Z,95693.47
2018-12-02T20:13:20.417Z,95690.78
2018-12-02T20:15:55.134Z,95690.34
2018-12-02T20:18:23.634Z,95691.41
2018-12-02T20:20:54.402Z,95692.47
2018-12-02T20:23:28.990Z,95700.81
2018-12-02T20:25:59.406Z,95689.27
2018-12-02T20:28:40.661Z,95702.42
2018-12-02T20:31:11.713Z,95700.76
2018-12-02T20:33:40.074Z,95694.89
2018-12-02T20:36:08.622Z,95701.53
2018-12-02T20:38:37.081Z,95711.56
2018-12-02T20:41:06.613Z,95695.16
2018-12-02T20:43:35.578Z,95696.61
2018-12-02T20:46:04.352Z,95684.31
2018-12-02T20:48:33.302Z,95685.14
2018-12-02T20:51:01.835Z,95674.05
2018-12-02T20:53:31.413Z,95669.53
2018-12-02T20:55:59.878Z,95663.36
2018-12-02T20:58:29.150Z,95667.25
2018-12-02T21:00:57.913Z,95657.02
2018-12-02T21:03:29.391Z,95658.56
2018-12-02T21:06:03.225Z,95649.78
2018-12-02T21:08:31.978Z,95650.67
2018-12-02T21:11:01.036Z,95652.33
2018-12-02T21:13:29.481Z,95646.61
2018-12-02T21:15:59.187Z,95649.78
2018-12-02T21:18:29.278Z,95648.70
2018-12-02T21:20:58.633Z,95652.19
2018-12-02T21:23:28.291Z,95653.19
2018-12-02T21:25:57.963Z,95658.61
2018-12-02T21:28:26.682Z,95652.38
2018-12-02T21:30:55.028Z,95648.92
2018-12-02T21:33:23.365Z,95645.84
2018-12-02T21:35:52.080Z,95639.12
2018-12-02T21:38:20.410Z,95645.38
2018-12-02T21:40:48.773Z,95638.09
2018-12-02T21:43:17.405Z,95635.69
2018-12-02T21:45:46.921Z,95639.38
2018-12-02T21:48:17.517Z,95646.35
2018-12-02T21:50:48.973Z,95641.61
2018-12-02T21:53:17.826Z,95629.71
2018-12-02T21:55:47.870Z,95627.34
2018-12-02T21:58:17.476Z,95635.95
2018-12-02T22:00:50.372Z,95633.00
2018-12-02T22:03:21.342Z,95627.53
2018-12-02T22:05:50.337Z,95613.18
2018-12-02T22:08:19.710Z,95603.52
2018-12-02T22:10:49.545Z,95608.03
2018-12-02T22:13:22.336Z,95608.18
2018-12-02T22:15:51.087Z,95611.83
2018-12-02T22:18:20.582Z,95621.98
2018-12-02T22:20:50.279Z,95616.86
2018-12-02T22:23:19.795Z,95619.84
2018-12-02T22:25:48.786Z,95618.20
2018-12-02T22:28:18.877Z,95623.32
2018-12-02T22:30:47.752Z,95622.75
2018-12-02T22:33:16.174Z,95632.95
2018-12-02T22:35:44.527Z,95621.17
2018-12-02T22:38:12.866Z,95617.14
2018-12-02T22:40:41.198Z,95630.84
2018-12-02T22:43:09.501Z,95639.16
2018-12-02T22:45:37.809Z,95640.73
2018-12-02T22:48:06.234Z,95644.28
2018-12-02T22:50:34.573Z,95655.83
2018-12-02T22:53:02.915Z,95653.44
2018-12-02T22:55:31.245Z,95660.21
2018-12-02T22:58:00.673Z,95655.16
2018-12-02T23:00:36.293Z,95656.91
2018-12-02T23:03:10.236Z,95664.73
2018-12-02T23:05:39.589Z,95658.88
2018-12-02T23:08:08.070Z,95647.70
2018-12-02T23:10:36.503Z,95650.27
2018-12-02T23:13:05.598Z,95651.98
2018-12-02T23:15:33.993Z,95649.03
2018-12-02T23:18:04.529Z,95651.72
2018-12-02T23:20:33.619Z,95654.55
2018-12-02T23:23:02.200Z,95644.83
2018-12-02T23:25:30.812Z,95655.45
2018-12-02T23:27:59.947Z,95654.84
2018-12-02T23:30:28.786Z,95661.00
2018-12-02T23:32:57.417Z,95656.73
2018-12-02T23:35:26.477Z,95651.78
2018-12-02T23:37:56.086Z,95653.17
2018-12-02T23:40:25.480Z,95659.37
2018-12-02T23:42:53.798Z,95648.98
2018-12-02T23:45:22.126Z,95645.81
2018-12-02T23:47:50.459Z,95642.89
2018-12-02T23:50:21.100Z,95643.48
2018-12-02T23:52:49.954Z,95624.44
2018-12-02T23:55:19.649Z,95630.09
2018-12-02T23:57:48.450Z,95617.94
